createdAt,value
2016-09-26T20:03:34.158Z,64.18
2016-09-26T20:04:20.000Z,64.56
2016-09-26T20:09:12.659Z,62.70
2016-09-26T20:14:08.753Z,57.29
2016-09-26T20:19:04.740Z,56.98
2016-09-26T20:24:00.253Z,63.76
2016-09-26T20:28:55.925Z,68.17
2016-09-26T20:33:51.684Z,70.43
2016-09-26T20:38:47.552Z,71.58
2016-09-26T20:43:43.847Z,72.69
2016-09-26T20:48:40.473Z,73.94
2016-09-26T20:53:37.461Z,75.34
2016-09-26T20:58:33.811Z,75.62
2016-09-26T21:03:30.252Z,75.71
2016-09-26T21:08:27.863Z,76.39
2016-09-26T21:13:24.111Z,76.77
2016-09-26T21:18:21.245Z,77.34
2016-09-26T21:23:17.524Z,77.69
2016-09-26T21:28:14.351Z,78.16
2016-09-26T21:33:10.898Z,78.49
2016-09-26T21:38:07.499Z,78.39
2016-09-26T21:43:03.929Z,77.82
2016-09-26T21:48:00.840Z,77.97
2016-09-26T21:52:56.997Z,78.36
2016-09-26T21:57:53.890Z,77.92
2016-09-26T22:02:50.486Z,76.48
2016-09-26T22:07:46.732Z,76.48
2016-09-26T22:12:43.742Z,77.25
2016-09-26T22:17:40.491Z,77.44
2016-09-26T22:22:37.205Z,77.72
2016-09-26T22:27:33.740Z,77.97
2016-09-26T22:32:30.327Z,78.74
2016-09-26T22:37:29.054Z,77.92
2016-09-26T22:42:25.491Z,78.39
2016-09-26T22:47:21.956Z,78.39
2016-09-26T22:52:18.926Z,78.36
2016-09-26T22:57:15.400Z,79.02
2016-09-26T23:02:11.592Z,78.16
2016-09-26T23:07:08.157Z,78.93
2016-09-26T23:12:04.885Z,78.55
2016-09-26T23:17:01.688Z,78.26
2016-09-26T23:21:58.254Z,79.02
2016-09-26T23:26:55.588Z,79.12
2016-09-26T23:31:52.604Z,78.16
2016-09-26T23:36:49.442Z,78.45
2016-09-26T23:41:45.969Z,78.55
2016-09-26T23:46:42.840Z,78.93
2016-09-26T23:51:39.371Z,78.93
2016-09-26T23:56:36.329Z,79.02
